Time;durP1;ratioP1;P1;durP2;ratioP2;P2;SDS_P1;SDS_P2;PMS_P1;PMS_P2;Temp;Humidity;BMP_temperature;BMP_pressure;BME280_temperature;BME280_humidity;BME280_pressure;Samples;Min_cycle;Max_cycle;Signal;HPM_P1;HPM_P2
2023/11/12 00:01:51;;;;;;;;;9.00;7.67;;;;;10.15;85.34;100214.53;5039505;28;65945;-68
2023/11/12 00:04:18;;;;;;;;;8.67;8.67;;;;;10.16;85.29;100211.78;5088301;27;45694;-68
2023/11/12 00:06:43;;;;;;;;;8.67;8.33;;;;;10.15;84.81;100210.06;5059415;28;45503;-67
2023/11/12 00:09:09;;;;;;;;;9.67;8.67;;;;;10.14;84.78;100215.47;5060859;28;45391;-69
2023/11/12 00:11:36;;;;;;;;;13.67;9.00;;;;;10.13;84.39;100213.75;5061531;28;45387;-69
2023/11/12 00:14:02;;;;;;;;;9.00;8.67;;;;;10.14;84.56;100212.81;5092440;27;45324;-68
2023/11/12 00:16:27;;;;;;;;;12.00;8.00;;;;;10.09;84.32;100211.28;5062002;28;45536;-68
2023/11/12 00:18:53;;;;;;;;;8.00;7.00;;;;;10.10;84.64;100214.78;5058571;28;45407;-67
2023/11/12 00:21:20;;;;;;;;;8.00;7.67;;;;;10.09;84.10;100202.47;5062240;28;45521;-67
2023/11/12 00:23:48;;;;;;;;;12.33;10.00;;;;;10.07;84.30;100202.53;5090764;27;46118;-68
2023/11/12 00:26:14;;;;;;;;;8.33;7.67;;;;;10.03;84.62;100198.34;5040521;28;48333;-68
2023/11/12 00:28:43;;;;;;;;;8.33;7.00;;;;;10.01;84.65;100189.63;5073681;27;45624;-68
2023/11/12 00:31:08;;;;;;;;;9.67;8.33;;;;;10.00;84.43;100173.75;5061605;28;45521;-69
2023/11/12 00:33:33;;;;;;;;;9.67;8.00;;;;;10.00;84.88;100164.00;5045353;28;69687;-68
2023/11/12 00:35:58;;;;;;;;;10.00;7.00;;;;;10.01;84.73;100152.44;5060686;28;70046;-67
2023/11/12 00:38:24;;;;;;;;;9.67;7.00;;;;;9.99;84.65;100150.81;5082572;27;72814;-67
2023/11/12 00:40:49;;;;;;;;;5.67;5.67;;;;;9.98;84.33;100159.72;5060125;28;45450;-67
2023/11/12 00:43:15;;;;;;;;;6.67;6.67;;;;;9.98;84.24;100171.19;5085927;27;45477;-68
2023/11/12 00:45:40;;;;;;;;;8.00;8.00;;;;;9.98;84.52;100159.72;5064461;28;46235;-68
2023/11/12 00:48:07;;;;;;;;;7.00;7.00;;;;;9.99;84.33;100154.31;5058985;28;68245;-69
2023/11/12 00:50:33;;;;;;;;;10.00;7.00;;;;;10.02;84.66;100150.63;5065526;28;45572;-68
2023/11/12 00:52:58;;;;;;;;;10.33;9.33;;;;;10.03;84.00;100142.56;5060680;28;45389;-69
2023/11/12 00:55:24;;;;;;;;;10.00;10.00;;;;;10.03;83.85;100136.41;5063276;28;67679;-68
2023/11/12 00:57:49;;;;;;;;;9.67;8.33;;;;;10.02;84.13;100142.66;5064349;28;45401;-69
2023/11/12 01:00:14;;;;;;;;;8.00;6.00;;;;;9.96;84.03;100133.25;5056710;28;68581;-67
2023/11/12 01:02:40;;;;;;;;;10.33;6.67;;;;;9.97;83.73;100131.44;5064217;28;45402;-68
2023/11/12 01:05:05;;;;;;;;;9.33;8.00;;;;;9.96;83.51;100127.94;5074662;28;64510;-68
2023/11/12 01:07:31;;;;;;;;;6.33;6.33;;;;;9.96;83.81;100119.97;5048281;28;45434;-68
2023/11/12 01:09:56;;;;;;;;;8.00;7.00;;;;;9.97;83.82;100124.31;5061830;28;45847;-67
2023/11/12 01:12:23;;;;;;;;;8.00;8.00;;;;;9.99;84.18;100124.25;5061815;28;45411;-68
2023/11/12 01:14:49;;;;;;;;;9.00;7.00;;;;;10.01;84.17;100114.34;5090732;27;46079;-67
2023/11/12 01:17:15;;;;;;;;;11.00;8.00;;;;;10.03;84.13;100125.78;5059948;28;45411;-68
2023/11/12 01:19:40;;;;;;;;;9.67;8.00;;;;;10.03;84.25;100129.25;5058790;28;45295;-68
2023/11/12 01:22:06;;;;;;;;;8.00;4.67;;;;;10.00;84.58;100126.81;5062322;28;45597;-68
2023/11/12 01:24:31;;;;;;;;;7.00;6.67;;;;;9.98;84.39;100134.00;5058180;28;46284;-68
2023/11/12 01:26:57;;;;;;;;;11.00;6.00;;;;;9.98;84.63;100127.84;5063388;28;45403;-68
2023/11/12 01:29:24;;;;;;;;;12.00;8.67;;;;;9.95;84.43;100120.91;5060124;28;45307;-68
2023/11/12 01:31:49;;;;;;;;;5.00;5.00;;;;;9.92;84.11;100124.59;5059444;28;45430;-68
2023/11/12 01:34:15;;;;;;;;;5.00;5.00;;;;;9.91;84.44;100128.19;5058282;28;75579;-67
2023/11/12 01:36:40;;;;;;;;;6.33;5.00;;;;;9.91;84.62;100130.00;5060419;28;45486;-68
2023/11/12 01:39:08;;;;;;;;;5.00;4.67;;;;;9.91;84.46;100130.00;5061410;28;45509;-68
2023/11/12 01:41:33;;;;;;;;;7.00;5.33;;;;;9.91;85.12;100145.94;5042585;28;45523;-68
2023/11/12 01:43:59;;;;;;;;;8.67;4.67;;;;;9.88;84.44;100148.75;5088049;27;46260;-67
2023/11/12 01:46:25;;;;;;;;;8.00;5.00;;;;;9.80;84.18;100143.88;5058390;28;72212;-67
2023/11/12 01:48:51;;;;;;;;;6.67;4.00;;;;;9.71;84.41;100150.59;5062015;28;45303;-68
2023/11/12 01:51:17;;;;;;;;;4.33;4.00;;;;;9.66;84.96;100157.97;5088305;27;45642;-68
2023/11/12 01:53:42;;;;;;;;;4.67;4.67;;;;;9.66;84.95;100157.97;5088562;27;45441;-68
2023/11/12 01:56:10;;;;;;;;;9.00;4.00;;;;;9.63;85.24;100152.81;5055660;28;71722;-68
2023/11/12 01:58:37;;;;;;;;;3.00;3.00;;;;;9.59;85.33;100149.47;5063889;28;45491;-68
2023/11/12 02:01:02;;;;;;;;;5.67;5.00;;;;;9.58;85.85;100138.91;5061475;28;45434;-68
2023/11/12 02:03:29;;;;;;;;;7.00;5.67;;;;;9.57;86.40;100147.84;5060726;28;45428;-68
2023/11/12 02:05:54;;;;;;;;;3.00;3.00;;;;;9.61;86.86;100154.69;5060181;28;45486;-68
2023/11/12 02:08:21;;;;;;;;;5.00;4.00;;;;;9.65;86.39;100144.75;5060796;28;44820;-68
2023/11/12 02:10:48;;;;;;;;;5.33;4.33;;;;;9.67;86.68;100143.72;5061200;28;45602;-68
2023/11/12 02:13:14;;;;;;;;;6.67;5.33;;;;;9.64;87.73;100143.91;5059366;28;45322;-68
2023/11/12 02:15:39;;;;;;;;;4.00;4.00;;;;;9.60;87.70;100145.84;5084482;27;45383;-68
2023/11/12 02:18:04;;;;;;;;;5.00;4.33;;;;;9.53;88.42;100138.31;5058979;28;63004;-68
2023/11/12 02:20:30;;;;;;;;;3.67;3.67;;;;;9.51;88.13;100134.91;5060261;28;67845;-68
2023/11/12 02:22:55;;;;;;;;;4.00;4.00;;;;;9.48;88.92;100140.38;5057999;28;74771;-68
2023/11/12 02:25:21;;;;;;;;;5.67;5.00;;;;;9.46;89.11;100136.97;5052561;28;64482;-69
2023/11/12 02:27:48;;;;;;;;;2.00;2.00;;;;;9.38;90.81;100138.25;5088708;27;45397;-68
2023/11/12 02:30:13;;;;;;;;;1.00;1.00;;;;;9.33;90.99;100131.50;5052176;28;45631;-68
2023/11/12 02:32:40;;;;;;;;;3.00;2.00;;;;;9.27;90.31;100130.03;5092861;27;45820;-68
2023/11/12 02:35:07;;;;;;;;;2.33;2.00;;;;;9.15;91.31;100120.09;5059616;28;45449;-67
2023/11/12 02:37:33;;;;;;;;;2.00;2.00;;;;;9.05;91.67;100131.19;5044842;28;45449;-67
2023/11/12 02:39:58;;;;;;;;;1.67;1.67;;;;;9.01;91.19;100119.06;5057823;28;45337;-67
2023/11/12 02:42:23;;;;;;;;;2.00;2.00;;;;;9.01;90.02;100128.78;5066382;28;50672;-67
2023/11/12 02:44:49;;;;;;;;;4.33;2.00;;;;;8.98;89.92;100134.25;5063695;28;45373;-67
2023/11/12 02:47:14;;;;;;;;;2.00;2.00;;;;;8.99;90.07;100142.13;5059928;28;45411;-68
2023/11/12 02:49:52;;;;;;;;;1.00;1.00;;;;;9.03;89.96;100135.72;5087049;27;45529;-67
2023/11/12 02:52:18;;;;;;;;;2.00;2.00;;;;;9.03;89.97;100125.09;5061996;28;45631;-67
2023/11/12 02:54:43;;;;;;;;;1.00;1.00;;;;;8.97;90.42;100138.72;5081356;27;45292;-66
2023/11/12 02:57:08;;;;;;;;;1.00;1.00;;;;;8.97;90.83;100130.78;5060125;28;58376;-67
2023/11/12 02:59:34;;;;;;;;;4.00;2.00;;;;;9.01;91.17;100128.78;5058201;28;69137;-66
2023/11/12 03:01:59;;;;;;;;;1.67;1.67;;;;;9.04;91.57;100121.53;5061310;28;75674;-66
2023/11/12 03:04:24;;;;;;;;;1.33;1.33;;;;;9.03;90.81;100119.81;5059023;28;73369;-67
2023/11/12 03:06:50;;;;;;;;;1.00;1.00;;;;;9.04;91.07;100112.72;5059650;28;45368;-67
2023/11/12 03:09:15;;;;;;;;;0.33;0.33;;;;;9.08;90.66;100106.31;5064502;28;72624;-67
2023/11/12 03:11:41;;;;;;;;;1.00;1.00;;;;;9.10;90.97;100107.09;5037828;28;46871;-67
2023/11/12 03:14:08;;;;;;;;;2.00;1.00;;;;;9.14;90.88;100110.41;5062850;28;45653;-67
2023/11/12 03:16:33;;;;;;;;;1.00;1.00;;;;;9.18;91.44;100109.31;5065701;28;45524;-67
2023/11/12 03:19:00;;;;;;;;;2.67;1.00;;;;;9.23;91.78;100112.53;5061883;28;69339;-67
2023/11/12 03:21:28;;;;;;;;;4.00;0.67;;;;;9.23;90.02;100112.53;5057625;28;46989;-67
2023/11/12 03:23:54;;;;;;;;;1.33;1.00;;;;;9.24;90.18;100116.91;5046373;28;45655;-67
2023/11/12 03:26:19;;;;;;;;;1.00;1.00;;;;;9.23;89.84;100110.78;5059641;28;45663;-68
2023/11/12 03:28:45;;;;;;;;;1.33;1.00;;;;;9.22;90.38;100124.13;5064139;28;70771;-67
2023/11/12 03:31:10;;;;;;;;;0.00;0.00;;;;;9.20;90.70;100123.34;5056007;28;75421;-67
2023/11/12 03:33:36;;;;;;;;;1.00;1.00;;;;;9.20;90.70;100118.03;5057810;28;58357;-68
2023/11/12 03:36:02;;;;;;;;;1.00;1.00;;;;;9.21;90.73;100111.78;5057469;28;65572;-67
2023/11/12 03:38:28;;;;;;;;;0.00;0.00;;;;;9.24;90.87;100114.25;5060648;28;45516;-68
2023/11/12 03:40:53;;;;;;;;;1.00;1.00;;;;;9.27;90.29;100117.63;5059252;28;45486;-67
2023/11/12 03:43:19;;;;;;;;;0.00;0.00;;;;;9.26;90.04;100117.69;5069233;28;45419;-68
2023/11/12 03:45:44;;;;;;;;;2.67;1.67;;;;;9.22;89.60;100116.16;5064540;28;69230;-67
2023/11/12 03:48:10;;;;;;;;;0.67;0.00;;;;;9.18;89.42;100115.47;5066660;28;66832;-68
2023/11/12 03:50:36;;;;;;;;;1.33;0.67;;;;;9.19;89.93;100116.31;5066398;28;45513;-67
2023/11/12 03:53:01;;;;;;;;;2.00;1.00;;;;;9.19;90.05;100114.53;5071890;28;45379;-68
2023/11/12 03:55:27;;;;;;;;;2.00;1.00;;;;;9.21;89.79;100107.34;5062714;28;45536;-67
2023/11/12 03:57:52;;;;;;;;;1.00;1.00;;;;;9.17;89.14;100107.59;5067612;28;62977;-68
2023/11/12 04:00:17;;;;;;;;;1.00;1.00;;;;;9.14;89.90;100108.63;5063129;28;75980;-67
2023/11/12 04:02:43;;;;;;;;;0.00;0.00;;;;;9.14;89.54;100107.75;5068491;28;73370;-68
2023/11/12 04:05:08;;;;;;;;;0.33;0.33;;;;;9.15;89.64;100102.38;5096730;27;45505;-67
2023/11/12 04:07:34;;;;;;;;;1.00;1.00;;;;;9.14;89.12;100097.13;5049322;28;45573;-67
2023/11/12 04:09:59;;;;;;;;;0.00;0.00;;;;;9.14;89.15;100095.38;5067103;28;45610;-69
2023/11/12 04:12:24;;;;;;;;;0.00;0.00;;;;;9.15;89.66;100096.19;5063529;28;67207;-67
2023/11/12 04:14:50;;;;;;;;;1.00;0.33;;;;;9.17;89.12;100104.94;5064812;28;61728;-68
2023/11/12 04:17:16;;;;;;;;;0.67;0.67;;;;;9.15;88.28;100098.84;5064162;28;70634;-67
2023/11/12 04:19:42;;;;;;;;;0.00;0.00;;;;;9.14;88.68;100099.78;5065877;28;46075;-68
2023/11/12 04:22:07;;;;;;;;;1.00;1.00;;;;;9.15;89.55;100093.56;5065687;28;45521;-68
2023/11/12 04:24:33;;;;;;;;;3.00;1.00;;;;;9.17;90.03;100103.13;5065725;28;68320;-68
2023/11/12 04:26:58;;;;;;;;;0.00;0.00;;;;;9.17;89.46;100097.84;5050127;28;61491;-68
2023/11/12 04:29:23;;;;;;;;;0.00;0.00;;;;;9.17;88.82;100097.00;5066657;28;46068;-68
2023/11/12 04:31:49;;;;;;;;;0.00;0.00;;;;;9.18;89.24;100096.91;5066305;28;45421;-68
2023/11/12 04:34:14;;;;;;;;;0.00;0.00;;;;;9.16;88.01;100095.28;5050145;28;69323;-68
2023/11/12 04:36:39;;;;;;;;;0.00;0.00;;;;;9.09;88.44;100089.44;5044584;28;45352;-68
2023/11/12 04:39:07;;;;;;;;;1.00;0.00;;;;;9.06;88.67;100085.16;5024466;28;74439;-69
2023/11/12 04:41:32;;;;;;;;;0.33;0.00;;;;;9.06;88.73;100090.47;5043986;28;45368;-68
2023/11/12 04:43:59;;;;;;;;;0.00;0.00;;;;;9.06;89.12;100079.88;5023901;28;45510;-67
2023/11/12 04:46:25;;;;;;;;;0.33;0.33;;;;;9.09;89.12;100085.00;5022403;28;45372;-68
2023/11/12 04:48:50;;;;;;;;;0.00;0.00;;;;;9.12;88.64;100080.47;5009568;28;48256;-68
2023/11/12 04:51:18;;;;;;;;;1.00;1.00;;;;;9.13;88.76;100076.88;5042485;28;45213;-68
2023/11/12 04:53:44;;;;;;;;;0.00;0.00;;;;;9.08;87.77;100077.97;5040060;28;45988;-67
2023/11/12 04:56:10;;;;;;;;;0.00;0.00;;;;;9.06;88.39;100078.97;5022422;28;45352;-69
2023/11/12 04:58:36;;;;;;;;;0.00;0.00;;;;;9.04;88.15;100075.59;5040338;28;46071;-68
2023/11/12 05:01:05;;;;;;;;;0.00;0.00;;;;;9.02;87.93;100067.72;5020119;28;71870;-68
2023/11/12 05:03:33;;;;;;;;;0.00;0.00;;;;;9.05;88.30;100070.19;5037576;28;45498;-68
2023/11/12 05:05:59;;;;;;;;;0.00;0.00;;;;;9.03;87.35;100064.09;5020287;28;45526;-68
2023/11/12 05:08:25;;;;;;;;;0.00;0.00;;;;;9.04;87.49;100057.00;5005970;28;47232;-68
2023/11/12 05:10:50;;;;;;;;;1.00;0.00;;;;;9.01;87.41;100052.72;5018099;28;45506;-69
2023/11/12 05:13:16;;;;;;;;;0.00;0.00;;;;;8.98;86.51;100047.56;5014974;28;64535;-68
2023/11/12 05:15:41;;;;;;;;;0.00;0.00;;;;;8.97;86.51;100040.59;5039942;28;45624;-68
2023/11/12 05:18:07;;;;;;;;;1.67;0.00;;;;;8.98;86.92;100029.00;5021486;28;47472;-69
2023/11/12 05:20:33;;;;;;;;;0.00;0.00;;;;;8.98;86.23;100028.16;5021836;28;45578;-68
2023/11/12 05:22:59;;;;;;;;;0.00;0.00;;;;;8.97;86.35;100027.31;5036933;28;45443;-68
2023/11/12 05:25:24;;;;;;;;;0.33;0.33;;;;;8.97;86.06;100029.09;5023089;28;45779;-68
2023/11/12 05:27:50;;;;;;;;;0.00;0.00;;;;;8.96;86.39;100032.69;4999730;28;47336;-68
2023/11/12 05:30:15;;;;;;;;;0.00;0.00;;;;;8.93;86.26;100039.03;5015172;28;73057;-68
2023/11/12 05:32:40;;;;;;;;;0.00;0.00;;;;;8.91;86.51;100039.09;5045891;28;45304;-68
2023/11/12 05:35:06;;;;;;;;;0.00;0.00;;;;;8.93;86.77;100033.75;5062823;28;69419;-68
2023/11/12 05:37:31;;;;;;;;;2.00;0.00;;;;;8.95;86.73;100031.84;5059090;28;45415;-68
2023/11/12 05:39:57;;;;;;;;;0.00;0.00;;;;;8.96;86.41;100030.03;5065320;28;73214;-68
2023/11/12 05:42:22;;;;;;;;;0.00;0.00;;;;;8.95;86.81;100031.84;5058869;28;68313;-68
2023/11/12 05:44:47;;;;;;;;;0.00;0.00;;;;;8.94;86.02;100022.16;5061400;28;60490;-68
2023/11/12 05:47:14;;;;;;;;;0.00;0.00;;;;;8.92;86.04;100024.06;5062709;28;75684;-68
2023/11/12 05:49:39;;;;;;;;;0.00;0.00;;;;;8.92;86.43;100035.50;5061276;28;45398;-68
2023/11/12 05:52:04;;;;;;;;;1.00;0.00;;;;;8.93;86.76;100039.88;5092688;27;45409;-69
2023/11/12 05:54:30;;;;;;;;;0.00;0.00;;;;;8.95;86.96;100029.19;5071594;28;46092;-69
2023/11/12 05:56:55;;;;;;;;;0.00;0.00;;;;;8.98;86.56;100033.47;5063325;28;74381;-69
2023/11/12 05:59:21;;;;;;;;;0.00;0.00;;;;;8.97;86.44;100035.28;5060962;28;45513;-69
2023/11/12 06:01:46;;;;;;;;;0.00;0.00;;;;;8.98;86.83;100028.16;5059750;28;45830;-70
2023/11/12 06:04:11;;;;;;;;;0.00;0.00;;;;;8.98;86.65;100029.00;5063016;28;70529;-69
2023/11/12 06:06:39;;;;;;;;;0.00;0.00;;;;;8.98;86.27;100015.75;5061286;28;64184;-69
2023/11/12 06:09:04;;;;;;;;;0.00;0.00;;;;;8.96;85.61;100016.78;5063964;28;45390;-69
2023/11/12 06:11:30;;;;;;;;;0.00;0.00;;;;;8.94;85.93;100022.16;5057671;28;45503;-69
2023/11/12 06:13:55;;;;;;;;;0.00;0.00;;;;;8.94;86.18;100020.38;5058061;28;70675;-69
2023/11/12 06:16:20;;;;;;;;;0.00;0.00;;;;;8.96;86.37;100020.28;5087832;27;45256;-69
2023/11/12 06:18:46;;;;;;;;;0.00;0.00;;;;;8.99;86.28;100019.28;5063932;28;45365;-69
2023/11/12 06:21:11;;;;;;;;;0.00;0.00;;;;;9.00;86.28;100016.53;5063631;28;45592;-69
2023/11/12 06:23:43;;;;;;;;;1.00;1.00;;;;;9.01;86.29;100027.97;5058558;28;71578;-69
2023/11/12 06:26:08;;;;;;;;;0.67;0.00;;;;;9.01;86.38;100020.91;5060749;28;45599;-70
2023/11/12 06:28:34;;;;;;;;;0.00;0.00;;;;;9.01;86.11;100023.56;5060918;28;71919;-69
2023/11/12 06:30:59;;;;;;;;;0.33;0.33;;;;;9.01;85.91;100018.25;5062264;28;69540;-69
2023/11/12 06:33:24;;;;;;;;;0.67;0.67;;;;;9.02;86.33;100016.44;5055621;28;69349;-69
2023/11/12 06:35:49;;;;;;;;;0.33;0.33;;;;;9.02;86.68;100016.44;5060686;28;60278;-69
2023/11/12 06:38:15;;;;;;;;;0.67;0.67;;;;;9.02;86.49;100011.13;5061210;28;61222;-69
2023/11/12 06:40:40;;;;;;;;;1.00;0.00;;;;;9.01;86.69;100015.59;5058135;28;68206;-69
2023/11/12 06:43:05;;;;;;;;;0.00;0.00;;;;;9.02;86.42;100019.97;5056119;28;70472;-69
2023/11/12 06:45:31;;;;;;;;;0.00;0.00;;;;;9.03;86.06;100020.81;5059750;28;63537;-69
2023/11/12 06:47:56;;;;;;;;;0.00;0.00;;;;;9.02;86.19;100030.56;5061998;28;73319;-69
2023/11/12 06:50:21;;;;;;;;;0.00;0.00;;;;;8.99;86.25;100025.41;5067885;28;45631;-69
2023/11/12 06:52:47;;;;;;;;;2.00;0.67;;;;;9.00;86.62;100019.19;5056781;28;70200;-69
2023/11/12 06:55:12;;;;;;;;;1.00;0.00;;;;;9.04;86.69;100025.19;5057704;28;75688;-70
2023/11/12 06:57:37;;;;;;;;;0.00;0.00;;;;;9.04;86.53;100020.72;5060178;28;55729;-69
2023/11/12 07:00:04;;;;;;;;;0.00;0.00;;;;;9.02;86.48;100009.34;5047122;28;45547;-69
2023/11/12 07:02:29;;;;;;;;;0.33;0.00;;;;;9.03;86.06;100023.47;5058093;28;45512;-67
2023/11/12 07:04:55;;;;;;;;;0.00;0.00;;;;;9.03;86.35;100024.31;5059974;28;74850;-68
2023/11/12 07:07:20;;;;;;;;;0.00;0.00;;;;;9.05;86.69;100029.53;5039949;28;72044;-67
2023/11/12 07:09:46;;;;;;;;;2.00;0.00;;;;;9.06;86.15;100024.16;5041983;28;50798;-68
2023/11/12 07:12:11;;;;;;;;;0.00;0.00;;;;;9.06;86.77;100028.59;5058229;28;45792;-69
2023/11/12 07:14:36;;;;;;;;;1.00;1.00;;;;;9.06;86.37;100042.72;5058372;28;75979;-68
2023/11/12 07:17:02;;;;;;;;;0.00;0.00;;;;;9.08;86.92;100042.63;5064256;28;72478;-68
2023/11/12 07:19:28;;;;;;;;;0.00;0.00;;;;;9.09;87.10;100047.84;5068265;28;45452;-68
2023/11/12 07:21:54;;;;;;;;;0.00;0.00;;;;;9.12;87.08;100045.97;5062891;28;45765;-68
2023/11/12 07:24:19;;;;;;;;;1.00;0.00;;;;;9.11;86.99;100039.78;5058751;28;46134;-68
2023/11/12 07:26:44;;;;;;;;;0.00;0.00;;;;;9.11;87.64;100039.78;5073226;28;71838;-68
2023/11/12 07:29:13;;;;;;;;;0.00;0.00;;;;;9.12;87.79;100044.16;5072744;28;55001;-68
2023/11/12 07:31:39;;;;;;;;;0.00;0.00;;;;;9.13;87.93;100045.88;5086595;27;45891;-69
2023/11/12 07:34:06;;;;;;;;;2.67;0.33;;;;;9.10;87.91;100040.75;5062538;28;46342;-69
2023/11/12 07:36:31;;;;;;;;;1.00;1.00;;;;;9.11;88.51;100055.72;5040564;28;45345;-68
2023/11/12 07:38:57;;;;;;;;;0.00;0.00;;;;;9.08;88.17;100058.53;5088486;27;45412;-68
2023/11/12 07:41:23;;;;;;;;;0.33;0.00;;;;;9.06;88.41;100053.34;5063554;28;47462;-70
2023/11/12 07:43:49;;;;;;;;;0.33;0.33;;;;;9.07;88.59;100059.47;5067742;28;45456;-69
2023/11/12 07:46:14;;;;;;;;;0.00;0.00;;;;;9.09;88.52;100066.41;5067667;28;45454;-69
2023/11/12 07:48:39;;;;;;;;;0.00;0.00;;;;;9.08;89.35;100072.66;5056947;28;45478;-68
2023/11/12 07:51:05;;;;;;;;;0.00;0.00;;;;;9.08;89.26;100067.34;5062319;28;48088;-68
2023/11/12 07:53:30;;;;;;;;;1.00;1.00;;;;;9.08;89.54;100067.34;5041341;28;71688;-68
2023/11/12 07:55:55;;;;;;;;;2.00;0.00;;;;;9.10;89.43;100068.13;5054352;28;73109;-69
2023/11/12 07:58:21;;;;;;;;;1.33;0.33;;;;;9.14;89.44;100067.94;5070479;28;45975;-69
2023/11/12 08:00:46;;;;;;;;;2.00;0.00;;;;;9.15;89.41;100067.91;5055862;28;68637;-70
2023/11/12 08:03:11;;;;;;;;;0.00;0.00;;;;;9.16;89.63;100068.75;5061069;27;45515;-68
2023/11/12 08:05:37;;;;;;;;;0.00;0.00;;;;;9.12;89.51;100080.47;5042101;28;71248;-68
2023/11/12 08:08:03;;;;;;;;;1.00;1.00;;;;;9.04;89.66;100071.13;5062055;28;45557;-68
2023/11/12 08:10:28;;;;;;;;;1.00;1.00;;;;;9.06;89.78;100073.69;5067322;28;45749;-68
2023/11/12 08:12:54;;;;;;;;;0.33;0.33;;;;;9.07;90.31;100072.75;5055522;28;74539;-69
2023/11/12 08:15:20;;;;;;;;;1.67;1.00;;;;;9.08;90.18;100077.13;5065663;28;45482;-68
2023/11/12 08:17:47;;;;;;;;;2.00;1.00;;;;;9.08;90.87;100075.31;5059558;28;69361;-69
2023/11/12 08:20:12;;;;;;;;;2.00;1.00;;;;;9.12;90.45;100077.81;5089477;27;45334;-68
2023/11/12 08:22:38;;;;;;;;;1.33;0.67;;;;;9.14;90.36;100078.56;5058940;28;46192;-67
2023/11/12 08:25:04;;;;;;;;;1.00;1.00;;;;;9.13;90.35;100082.19;5057899;28;50040;-68
2023/11/12 08:27:30;;;;;;;;;1.67;1.00;;;;;9.16;90.47;100090.81;5056695;28;45302;-68
2023/11/12 08:29:56;;;;;;;;;1.00;1.00;;;;;9.20;90.05;100092.34;5064875;28;45322;-68
2023/11/12 08:32:21;;;;;;;;;1.00;1.00;;;;;9.21;90.59;100085.25;5045651;28;47009;-68
2023/11/12 08:34:46;;;;;;;;;1.00;1.00;;;;;9.23;90.64;100075.41;5066829;28;55046;-68
2023/11/12 08:37:12;;;;;;;;;3.00;1.00;;;;;9.26;90.47;100072.59;5060116;28;64392;-68
2023/11/12 08:39:37;;;;;;;;;3.00;2.00;;;;;9.32;90.23;100084.66;5059482;28;45841;-68
2023/11/12 08:42:03;;;;;;;;;1.00;1.00;;;;;9.34;90.65;100094.25;5055035;28;47995;-69
2023/11/12 08:44:28;;;;;;;;;1.00;1.00;;;;;9.34;91.06;100086.28;5061955;28;45829;-69
2023/11/12 08:46:53;;;;;;;;;2.00;2.00;;;;;9.34;90.99;100077.47;5084771;27;45308;-69
2023/11/12 08:49:19;;;;;;;;;1.67;1.67;;;;;9.36;90.90;100094.16;5061370;28;45449;-68
2023/11/12 08:51:44;;;;;;;;;0.00;0.00;;;;;9.37;91.08;100104.69;5064040;28;74587;-68
2023/11/12 08:54:09;;;;;;;;;3.00;1.00;;;;;9.41;90.91;100111.53;5058432;28;50548;-68
2023/11/12 08:56:35;;;;;;;;;1.00;1.00;;;;;9.47;91.22;100113.00;5061240;28;45468;-70
2023/11/12 08:59:03;;;;;;;;;2.67;2.00;;;;;9.51;91.24;100116.34;5058659;28;45566;-68
2023/11/12 09:01:28;;;;;;;;;2.33;2.33;;;;;9.51;90.79;100111.88;5038932;28;48055;-70
2023/11/12 09:03:53;;;;;;;;;3.00;3.00;;;;;9.54;90.72;100113.50;5061755;28;45603;-68
2023/11/12 09:06:19;;;;;;;;;1.00;1.00;;;;;9.59;90.50;100132.69;5061225;28;48702;-68
2023/11/12 09:08:45;;;;;;;;;2.00;2.00;;;;;9.58;90.47;100125.66;5071446;28;70327;-68
2023/11/12 09:11:13;;;;;;;;;2.00;2.00;;;;;9.56;90.30;100119.59;5043891;28;47240;-68
2023/11/12 09:13:38;;;;;;;;;6.00;3.33;;;;;9.58;90.82;100123.88;5058958;28;45486;-68
2023/11/12 09:16:04;;;;;;;;;3.67;3.67;;;;;9.63;90.62;100130.72;5061913;28;56536;-68
2023/11/12 09:18:29;;;;;;;;;3.33;3.00;;;;;9.67;91.28;100133.09;5064033;28;45881;-67
2023/11/12 09:20:55;;;;;;;;;3.00;2.00;;;;;9.70;90.92;100132.06;5060907;28;45868;-67
2023/11/12 09:23:20;;;;;;;;;5.67;4.67;;;;;9.73;90.92;100132.75;5070598;28;45256;-68
2023/11/12 09:25:45;;;;;;;;;2.00;2.00;;;;;9.82;90.77;100138.50;5060108;28;63958;-69
2023/11/12 09:28:11;;;;;;;;;1.00;1.00;;;;;9.84;90.21;100149.88;5056599;28;60364;-69
2023/11/12 09:30:37;;;;;;;;;2.33;2.33;;;;;9.85;90.50;100155.09;5056922;28;47138;-69
2023/11/12 09:33:04;;;;;;;;;2.00;1.67;;;;;9.88;90.27;100144.31;5058729;28;45859;-69
2023/11/12 09:35:30;;;;;;;;;3.67;2.33;;;;;9.92;90.48;100145.84;5068770;28;45494;-69
2023/11/12 09:37:55;;;;;;;;;1.67;1.67;;;;;10.03;90.58;100144.38;5061203;28;45264;-70
2023/11/12 09:40:22;;;;;;;;;1.00;1.00;;;;;10.22;89.94;100154.75;5059867;28;47692;-68
2023/11/12 09:42:51;;;;;;;;;1.00;1.00;;;;;10.30;89.03;100152.53;5056543;28;45343;-68
2023/11/12 09:45:20;;;;;;;;;2.67;1.00;;;;;10.26;88.58;100153.66;5056432;28;45355;-68
2023/11/12 09:47:53;;;;;;;;;2.67;1.33;;;;;10.26;89.08;100161.63;5061282;28;45474;-68
2023/11/12 09:50:20;;;;;;;;;1.67;1.67;;;;;10.31;89.19;100174.63;5050313;28;46510;-68
2023/11/12 09:52:46;;;;;;;;;1.00;1.00;;;;;10.35;89.32;100178.81;5073581;27;45571;-68
2023/11/12 09:55:11;;;;;;;;;1.00;1.00;;;;;10.40;88.83;100161.69;5059712;28;45523;-68
2023/11/12 09:57:37;;;;;;;;;2.00;1.00;;;;;10.56;88.80;100158.97;5066331;28;69197;-69
2023/11/12 10:00:03;;;;;;;;;0.33;0.33;;;;;10.78;89.00;100140.84;5049920;28;73713;-68
2023/11/12 10:02:30;;;;;;;;;1.00;1.00;;;;;10.90;88.00;100167.56;5055956;28;45533;-67
2023/11/12 10:04:57;;;;;;;;;2.00;1.67;;;;;10.91;87.42;100174.59;5039491;28;45637;-68
2023/11/12 10:07:27;;;;;;;;;3.00;2.00;;;;;10.89;87.05;100163.19;5042706;28;46191;-68
2023/11/12 10:09:55;;;;;;;;;2.00;2.00;;;;;10.84;86.82;100161.75;5045648;28;45536;-68
2023/11/12 10:12:21;;;;;;;;;2.33;2.33;;;;;10.75;86.49;100169.38;5061289;28;45457;-67
2023/11/12 10:14:48;;;;;;;;;3.00;2.33;;;;;10.79;87.24;100158.53;5057754;28;45582;-68
2023/11/12 10:17:14;;;;;;;;;2.00;2.00;;;;;10.83;87.11;100166.22;5055662;28;45511;-68
2023/11/12 10:19:40;;;;;;;;;3.00;2.00;;;;;10.99;87.72;100159.94;5057086;28;48337;-67
2023/11/12 10:22:09;;;;;;;;;2.00;2.00;;;;;11.14;86.41;100158.16;5056504;28;46100;-68
2023/11/12 10:24:44;;;;;;;;;4.33;2.33;;;;;11.70;85.56;100150.16;5071234;27;45283;-68
2023/11/12 10:27:12;;;;;;;;;2.33;2.33;;;;;12.32;85.49;100146.97;5089027;27;45483;-66
2023/11/12 10:29:39;;;;;;;;;1.67;1.00;;;;;12.98;78.37;100144.22;5055714;28;45663;-66
2023/11/12 10:32:05;;;;;;;;;2.67;2.67;;;;;13.28;77.02;100152.84;5056698;28;45420;-66
2023/11/12 10:34:30;;;;;;;;;2.00;2.00;;;;;13.29;78.44;100138.53;5055590;28;45356;-66
2023/11/12 10:37:24;;;;;;;;;2.00;2.00;;;;;13.43;78.93;100143.75;5088819;27;58179;-67
2023/11/12 10:39:50;;;;;;;;;3.00;2.00;;;;;13.72;76.24;100138.94;5056530;28;48189;-66
2023/11/12 10:42:15;;;;;;;;;3.33;2.33;;;;;14.00;76.66;100150.28;5061581;28;71996;-67
2023/11/12 10:44:41;;;;;;;;;3.33;2.33;;;;;14.12;74.29;100150.31;5060267;28;52079;-67
2023/11/12 10:47:10;;;;;;;;;5.00;5.00;;;;;14.13;75.34;100152.88;5062899;28;68627;-67
2023/11/12 10:49:39;;;;;;;;;4.67;3.00;;;;;14.00;72.70;100174.34;5060659;28;46430;-67
2023/11/12 10:52:05;;;;;;;;;5.00;3.00;;;;;13.69;71.77;100167.75;5070173;27;45420;-66
2023/11/12 10:54:31;;;;;;;;;3.00;3.00;;;;;13.48;74.79;100164.78;5057331;28;45318;-67
2023/11/12 10:56:57;;;;;;;;;6.00;4.67;;;;;13.30;75.87;100177.63;5074006;28;45382;-66
2023/11/12 10:59:23;;;;;;;;;8.00;8.00;;;;;13.15;76.67;100171.56;5062928;28;45557;-66
2023/11/12 11:01:48;;;;;;;;;3.33;3.33;;;;;13.00;76.35;100173.50;5061046;28;71861;-66
2023/11/12 11:04:15;;;;;;;;;5.00;4.00;;;;;12.70;75.68;100177.34;5055193;28;50934;-65
2023/11/12 11:06:41;;;;;;;;;4.00;4.00;;;;;12.45;76.58;100180.81;5058739;27;45450;-66
2023/11/12 11:09:08;;;;;;;;;3.67;3.00;;;;;12.22;77.76;100184.06;5057427;28;73573;-66
2023/11/12 11:11:33;;;;;;;;;5.67;4.00;;;;;12.09;78.78;100185.84;5055233;28;45496;-65
2023/11/12 11:14:27;;;;;;;;;5.67;5.33;;;;;12.04;79.72;100193.28;5090188;27;45368;-66
2023/11/12 11:16:52;;;;;;;;;7.00;5.67;;;;;11.98;80.21;100191.88;5059194;27;45619;-65
2023/11/12 11:19:18;;;;;;;;;7.67;6.33;;;;;11.89;80.40;100192.47;5056275;28;75649;-65
2023/11/12 11:22:26;;;;;;;;;5.00;5.00;;;;;11.84;80.94;100199.91;5057272;28;45399;-65
2023/11/12 11:24:55;;;;;;;;;8.00;6.67;;;;;11.78;81.16;100198.47;5042003;28;45533;-65
2023/11/12 11:27:24;;;;;;;;;6.33;5.00;;;;;11.75;81.98;100193.34;5064327;28;45587;-65